Cunningham, Virginia
Current Conditions -  °F | °C
As of 2:55 AM on Wednesday 26 Nov 2014 (Local Time) from KLKU Reporting Station
Light Rain Light Rain  
Wind Chill: 42°   Ceiling: 5000
Heat Index: 45°   Visibility: 10mi
Dew Point: 43°   Wind: 5mph
Humidity: 93%   Direction: 20°NNE
Pressure: 30.04"   Gusts: NA
Location:  37.8582°N, 78.2803°W
Report Text: KLKU 260755Z AUTO 02004KT 10SM -RA OVC050 07/06 A3004 RMK AO2 P0002
Loading
Personal Weather Stations






























Interactive Weather Map New forecast layout! Learn more

10-Day Weather Forecast

Advertisements
Track Severe Weather on mobile